sensor_id;sensor_type;location;lat;lon;timestamp;P1;durP1;ratioP1;P2;durP2;ratioP2
45041;SDS011;30779;52.096;4.410;2023-03-01T00:00:42;13.05;;;9.63;;
45041;SDS011;30779;52.096;4.410;2023-03-01T00:03:46;13.45;;;9.77;;
45041;SDS011;30779;52.096;4.410;2023-03-01T00:06:47;16.42;;;10.45;;
45041;SDS011;30779;52.096;4.410;2023-03-01T00:09:48;14.35;;;9.55;;
45041;SDS011;30779;52.096;4.410;2023-03-01T00:12:49;14.35;;;10.00;;
45041;SDS011;30779;52.096;4.410;2023-03-01T00:15:50;15.10;;;10.27;;
45041;SDS011;30779;52.096;4.410;2023-03-01T00:18:51;15.25;;;10.52;;
45041;SDS011;30779;52.096;4.410;2023-03-01T00:21:54;17.60;;;11.05;;
45041;SDS011;30779;52.096;4.410;2023-03-01T00:24:55;17.73;;;10.60;;
45041;SDS011;30779;52.096;4.410;2023-03-01T00:27:56;16.15;;;11.50;;
45041;SDS011;30779;52.096;4.410;2023-03-01T00:31:02;20.30;;;11.57;;
45041;SDS011;30779;52.096;4.410;2023-03-01T00:34:04;14.48;;;10.27;;
45041;SDS011;30779;52.096;4.410;2023-03-01T00:37:06;17.55;;;10.82;;
45041;SDS011;30779;52.096;4.410;2023-03-01T00:40:07;17.35;;;10.80;;
45041;SDS011;30779;52.096;4.410;2023-03-01T00:43:08;18.90;;;12.05;;
45041;SDS011;30779;52.096;4.410;2023-03-01T00:46:12;17.20;;;11.38;;
45041;SDS011;30779;52.096;4.410;2023-03-01T00:49:13;17.45;;;11.88;;
45041;SDS011;30779;52.096;4.410;2023-03-01T00:52:14;18.25;;;11.80;;
45041;SDS011;30779;52.096;4.410;2023-03-01T00:55:15;17.60;;;10.82;;
45041;SDS011;30779;52.096;4.410;2023-03-01T00:58:16;21.00;;;12.60;;
45041;SDS011;30779;52.096;4.410;2023-03-01T01:01:19;17.67;;;11.93;;
45041;SDS011;30779;52.096;4.410;2023-03-01T01:04:20;18.27;;;11.70;;
45041;SDS011;30779;52.096;4.410;2023-03-01T01:07:22;18.02;;;11.95;;
45041;SDS011;30779;52.096;4.410;2023-03-01T01:10:23;17.88;;;12.38;;
45041;SDS011;30779;52.096;4.410;2023-03-01T01:13:24;25.20;;;13.30;;
45041;SDS011;30779;52.096;4.410;2023-03-01T01:16:26;19.05;;;12.13;;
45041;SDS011;30779;52.096;4.410;2023-03-01T01:19:27;21.00;;;13.27;;
45041;SDS011;30779;52.096;4.410;2023-03-01T01:22:28;19.90;;;12.13;;
45041;SDS011;30779;52.096;4.410;2023-03-01T01:25:29;17.73;;;11.93;;
45041;SDS011;30779;52.096;4.410;2023-03-01T01:28:30;21.08;;;12.35;;
45041;SDS011;30779;52.096;4.410;2023-03-01T01:31:32;20.55;;;13.32;;
45041;SDS011;30779;52.096;4.410;2023-03-01T01:34:33;19.58;;;13.13;;
45041;SDS011;30779;52.096;4.410;2023-03-01T01:37:34;21.30;;;12.90;;
45041;SDS011;30779;52.096;4.410;2023-03-01T01:40:42;18.77;;;12.10;;
45041;SDS011;30779;52.096;4.410;2023-03-01T01:43:44;21.35;;;12.35;;
45041;SDS011;30779;52.096;4.410;2023-03-01T01:49:58;19.15;;;12.73;;
45041;SDS011;30779;52.096;4.410;2023-03-01T01:52:59;19.95;;;13.07;;
45041;SDS011;30779;52.096;4.410;2023-03-01T01:56:00;23.45;;;13.65;;
45041;SDS011;30779;52.096;4.410;2023-03-01T01:59:02;21.17;;;13.38;;
45041;SDS011;30779;52.096;4.410;2023-03-01T02:02:03;23.80;;;13.95;;
45041;SDS011;30779;52.096;4.410;2023-03-01T02:08:20;23.23;;;14.13;;
45041;SDS011;30779;52.096;4.410;2023-03-01T02:11:23;25.42;;;14.27;;
45041;SDS011;30779;52.096;4.410;2023-03-01T02:14:25;26.27;;;15.75;;
45041;SDS011;30779;52.096;4.410;2023-03-01T02:17:26;21.60;;;13.95;;
45041;SDS011;30779;52.096;4.410;2023-03-01T02:23:47;23.50;;;14.48;;
45041;SDS011;30779;52.096;4.410;2023-03-01T02:26:49;25.98;;;13.60;;
45041;SDS011;30779;52.096;4.410;2023-03-01T02:29:52;19.98;;;12.30;;
45041;SDS011;30779;52.096;4.410;2023-03-01T02:32:54;24.88;;;14.75;;
45041;SDS011;30779;52.096;4.410;2023-03-01T02:36:09;21.00;;;13.82;;
45041;SDS011;30779;52.096;4.410;2023-03-01T02:39:33;22.02;;;13.43;;
45041;SDS011;30779;52.096;4.410;2023-03-01T02:42:36;20.83;;;13.45;;
45041;SDS011;30779;52.096;4.410;2023-03-01T02:45:42;23.15;;;14.02;;
45041;SDS011;30779;52.096;4.410;2023-03-01T02:48:45;19.83;;;13.75;;
45041;SDS011;30779;52.096;4.410;2023-03-01T02:58:07;21.52;;;13.05;;
45041;SDS011;30779;52.096;4.410;2023-03-01T03:01:08;32.40;;;15.05;;
45041;SDS011;30779;52.096;4.410;2023-03-01T03:04:10;25.67;;;15.32;;
45041;SDS011;30779;52.096;4.410;2023-03-01T03:07:12;27.40;;;15.15;;
45041;SDS011;30779;52.096;4.410;2023-03-01T03:10:18;24.35;;;15.18;;
45041;SDS011;30779;52.096;4.410;2023-03-01T03:13:20;24.52;;;16.35;;
45041;SDS011;30779;52.096;4.410;2023-03-01T03:16:22;24.13;;;14.52;;
45041;SDS011;30779;52.096;4.410;2023-03-01T03:19:23;27.58;;;16.23;;
45041;SDS011;30779;52.096;4.410;2023-03-01T03:22:24;25.02;;;14.85;;
45041;SDS011;30779;52.096;4.410;2023-03-01T03:25:25;26.70;;;15.40;;
45041;SDS011;30779;52.096;4.410;2023-03-01T03:28:27;25.60;;;15.18;;
45041;SDS011;30779;52.096;4.410;2023-03-01T03:31:28;25.63;;;16.15;;
45041;SDS011;30779;52.096;4.410;2023-03-01T03:34:29;28.75;;;16.98;;
45041;SDS011;30779;52.096;4.410;2023-03-01T03:37:30;28.13;;;16.08;;
45041;SDS011;30779;52.096;4.410;2023-03-01T03:40:51;30.08;;;17.17;;
45041;SDS011;30779;52.096;4.410;2023-03-01T03:43:52;27.15;;;15.98;;
45041;SDS011;30779;52.096;4.410;2023-03-01T03:46:53;28.10;;;16.27;;
45041;SDS011;30779;52.096;4.410;2023-03-01T03:49:54;28.73;;;16.63;;
45041;SDS011;30779;52.096;4.410;2023-03-01T03:52:55;25.85;;;15.90;;
45041;SDS011;30779;52.096;4.410;2023-03-01T03:55:56;26.55;;;15.13;;
45041;SDS011;30779;52.096;4.410;2023-03-01T03:58:58;25.08;;;15.32;;
45041;SDS011;30779;52.096;4.410;2023-03-01T04:01:59;27.52;;;16.88;;
45041;SDS011;30779;52.096;4.410;2023-03-01T04:05:00;28.70;;;16.80;;
45041;SDS011;30779;52.096;4.410;2023-03-01T04:08:01;27.73;;;16.90;;
45041;SDS011;30779;52.096;4.410;2023-03-01T04:11:03;26.88;;;16.88;;
45041;SDS011;30779;52.096;4.410;2023-03-01T04:14:24;30.45;;;17.60;;
45041;SDS011;30779;52.096;4.410;2023-03-01T04:17:25;28.38;;;16.33;;
45041;SDS011;30779;52.096;4.410;2023-03-01T04:20:27;28.60;;;17.30;;
45041;SDS011;30779;52.096;4.410;2023-03-01T04:23:28;28.95;;;16.33;;
45041;SDS011;30779;52.096;4.410;2023-03-01T04:26:29;32.38;;;17.40;;
45041;SDS011;30779;52.096;4.410;2023-03-01T04:29:30;30.00;;;17.40;;
45041;SDS011;30779;52.096;4.410;2023-03-01T04:32:31;28.58;;;17.23;;
45041;SDS011;30779;52.096;4.410;2023-03-01T04:35:32;31.95;;;18.17;;
45041;SDS011;30779;52.096;4.410;2023-03-01T04:38:35;26.83;;;16.83;;
45041;SDS011;30779;52.096;4.410;2023-03-01T04:41:37;30.40;;;17.50;;
45041;SDS011;30779;52.096;4.410;2023-03-01T04:44:43;29.30;;;17.85;;
45041;SDS011;30779;52.096;4.410;2023-03-01T04:47:45;27.92;;;17.80;;
45041;SDS011;30779;52.096;4.410;2023-03-01T04:50:46;28.15;;;17.90;;
45041;SDS011;30779;52.096;4.410;2023-03-01T04:53:47;31.75;;;17.48;;
45041;SDS011;30779;52.096;4.410;2023-03-01T04:56:48;30.10;;;17.05;;
45041;SDS011;30779;52.096;4.410;2023-03-01T04:59:49;30.02;;;17.08;;
45041;SDS011;30779;52.096;4.410;2023-03-01T05:02:54;32.13;;;18.70;;
45041;SDS011;30779;52.096;4.410;2023-03-01T05:05:58;27.65;;;16.63;;
45041;SDS011;30779;52.096;4.410;2023-03-01T05:08:59;24.83;;;14.68;;
45041;SDS011;30779;52.096;4.410;2023-03-01T05:12:00;49.17;;;17.35;;
45041;SDS011;30779;52.096;4.410;2023-03-01T05:15:01;28.58;;;15.70;;
45041;SDS011;30779;52.096;4.410;2023-03-01T05:18:06;54.90;;;17.52;;
45041;SDS011;30779;52.096;4.410;2023-03-01T05:21:12;45.85;;;16.25;;
45041;SDS011;30779;52.096;4.410;2023-03-01T05:24:15;84.63;;;18.90;;
45041;SDS011;30779;52.096;4.410;2023-03-01T05:27:16;32.08;;;14.65;;
45041;SDS011;30779;52.096;4.410;2023-03-01T05:30:17;158.70;;;27.17;;
45041;SDS011;30779;52.096;4.410;2023-03-01T05:33:18;200.98;;;32.78;;
45041;SDS011;30779;52.096;4.410;2023-03-01T05:36:21;63.40;;;18.48;;
45041;SDS011;30779;52.096;4.410;2023-03-01T05:39:23;34.47;;;16.90;;
45041;SDS011;30779;52.096;4.410;2023-03-01T05:42:24;34.08;;;18.20;;
45041;SDS011;30779;52.096;4.410;2023-03-01T05:45:26;30.42;;;16.10;;
45041;SDS011;30779;52.096;4.410;2023-03-01T05:48:27;29.08;;;17.60;;
45041;SDS011;30779;52.096;4.410;2023-03-01T05:51:28;29.85;;;17.35;;
45041;SDS011;30779;52.096;4.410;2023-03-01T05:54:29;28.75;;;16.73;;
45041;SDS011;30779;52.096;4.410;2023-03-01T05:57:30;26.90;;;15.68;;
45041;SDS011;30779;52.096;4.410;2023-03-01T06:00:31;30.35;;;17.45;;
45041;SDS011;30779;52.096;4.410;2023-03-01T06:03:32;28.67;;;17.52;;
45041;SDS011;30779;52.096;4.410;2023-03-01T06:06:34;31.98;;;18.33;;
45041;SDS011;30779;52.096;4.410;2023-03-01T06:09:37;33.60;;;18.90;;
45041;SDS011;30779;52.096;4.410;2023-03-01T06:12:39;36.10;;;19.00;;
45041;SDS011;30779;52.096;4.410;2023-03-01T06:15:40;32.28;;;17.88;;
45041;SDS011;30779;52.096;4.410;2023-03-01T06:18:41;29.05;;;18.13;;
45041;SDS011;30779;52.096;4.410;2023-03-01T06:21:42;31.85;;;18.95;;
45041;SDS011;30779;52.096;4.410;2023-03-01T06:24:43;31.20;;;18.10;;
45041;SDS011;30779;52.096;4.410;2023-03-01T06:27:44;36.72;;;20.10;;
45041;SDS011;30779;52.096;4.410;2023-03-01T06:30:45;33.53;;;18.83;;
45041;SDS011;30779;52.096;4.410;2023-03-01T06:33:46;36.03;;;19.23;;
45041;SDS011;30779;52.096;4.410;2023-03-01T06:36:47;30.48;;;19.20;;
45041;SDS011;30779;52.096;4.410;2023-03-01T06:39:48;32.90;;;19.23;;
45041;SDS011;30779;52.096;4.410;2023-03-01T06:42:49;32.10;;;18.10;;
45041;SDS011;30779;52.096;4.410;2023-03-01T06:45:50;37.88;;;20.17;;
45041;SDS011;30779;52.096;4.410;2023-03-01T06:48:51;36.28;;;20.80;;
45041;SDS011;30779;52.096;4.410;2023-03-01T06:51:52;35.70;;;20.60;;
45041;SDS011;30779;52.096;4.410;2023-03-01T06:54:53;36.58;;;21.85;;
45041;SDS011;30779;52.096;4.410;2023-03-01T06:57:55;35.47;;;19.80;;
45041;SDS011;30779;52.096;4.410;2023-03-01T07:00:56;34.58;;;20.13;;
45041;SDS011;30779;52.096;4.410;2023-03-01T07:03:57;34.35;;;20.17;;
45041;SDS011;30779;52.096;4.410;2023-03-01T07:06:58;33.05;;;19.98;;
45041;SDS011;30779;52.096;4.410;2023-03-01T07:09:59;33.60;;;19.67;;
45041;SDS011;30779;52.096;4.410;2023-03-01T07:13:00;36.53;;;19.05;;
45041;SDS011;30779;52.096;4.410;2023-03-01T07:16:01;34.60;;;19.83;;
45041;SDS011;30779;52.096;4.410;2023-03-01T07:19:02;34.53;;;20.27;;
45041;SDS011;30779;52.096;4.410;2023-03-01T07:22:05;32.92;;;18.95;;
45041;SDS011;30779;52.096;4.410;2023-03-01T07:25:08;35.03;;;21.20;;
45041;SDS011;30779;52.096;4.410;2023-03-01T07:28:09;33.25;;;19.63;;
45041;SDS011;30779;52.096;4.410;2023-03-01T07:31:10;31.80;;;20.17;;
45041;SDS011;30779;52.096;4.410;2023-03-01T07:34:11;30.55;;;18.35;;
45041;SDS011;30779;52.096;4.410;2023-03-01T07:37:12;30.42;;;17.40;;
45041;SDS011;30779;52.096;4.410;2023-03-01T07:40:13;32.10;;;19.20;;
45041;SDS011;30779;52.096;4.410;2023-03-01T07:43:14;32.78;;;19.80;;
45041;SDS011;30779;52.096;4.410;2023-03-01T07:46:15;31.90;;;20.17;;
45041;SDS011;30779;52.096;4.410;2023-03-01T07:49:17;34.63;;;19.98;;
45041;SDS011;30779;52.096;4.410;2023-03-01T07:52:18;37.60;;;20.70;;
45041;SDS011;30779;52.096;4.410;2023-03-01T07:55:19;33.35;;;20.60;;
45041;SDS011;30779;52.096;4.410;2023-03-01T07:58:20;32.30;;;18.92;;
45041;SDS011;30779;52.096;4.410;2023-03-01T08:01:21;31.80;;;20.33;;
45041;SDS011;30779;52.096;4.410;2023-03-01T08:04:22;30.08;;;18.88;;
45041;SDS011;30779;52.096;4.410;2023-03-01T08:07:24;36.22;;;20.58;;
45041;SDS011;30779;52.096;4.410;2023-03-01T08:10:25;33.83;;;20.70;;
45041;SDS011;30779;52.096;4.410;2023-03-01T08:13:26;32.42;;;19.88;;
45041;SDS011;30779;52.096;4.410;2023-03-01T08:16:27;34.67;;;20.92;;
45041;SDS011;30779;52.096;4.410;2023-03-01T08:19:28;24.20;;;16.75;;
45041;SDS011;30779;52.096;4.410;2023-03-01T08:22:30;18.85;;;14.02;;
45041;SDS011;30779;52.096;4.410;2023-03-01T08:25:31;18.02;;;13.70;;
45041;SDS011;30779;52.096;4.410;2023-03-01T08:28:32;17.40;;;13.18;;
45041;SDS011;30779;52.096;4.410;2023-03-01T08:31:34;17.63;;;13.80;;
45041;SDS011;30779;52.096;4.410;2023-03-01T08:34:36;19.83;;;14.67;;
45041;SDS011;30779;52.096;4.410;2023-03-01T08:37:37;21.55;;;15.38;;
45041;SDS011;30779;52.096;4.410;2023-03-01T08:40:38;20.02;;;14.93;;
45041;SDS011;30779;52.096;4.410;2023-03-01T08:43:39;22.50;;;16.23;;
45041;SDS011;30779;52.096;4.410;2023-03-01T08:46:41;24.55;;;16.60;;
45041;SDS011;30779;52.096;4.410;2023-03-01T08:49:42;19.75;;;14.77;;
45041;SDS011;30779;52.096;4.410;2023-03-01T08:52:43;18.15;;;13.77;;
45041;SDS011;30779;52.096;4.410;2023-03-01T08:55:44;21.02;;;14.93;;
45041;SDS011;30779;52.096;4.410;2023-03-01T08:58:45;21.48;;;15.43;;
45041;SDS011;30779;52.096;4.410;2023-03-01T09:01:46;19.88;;;15.27;;
45041;SDS011;30779;52.096;4.410;2023-03-01T09:04:47;23.83;;;16.33;;
45041;SDS011;30779;52.096;4.410;2023-03-01T09:07:48;25.15;;;17.50;;
45041;SDS011;30779;52.096;4.410;2023-03-01T09:10:49;24.90;;;19.10;;
45041;SDS011;30779;52.096;4.410;2023-03-01T09:13:50;26.40;;;18.33;;
45041;SDS011;30779;52.096;4.410;2023-03-01T09:16:51;26.45;;;16.70;;
45041;SDS011;30779;52.096;4.410;2023-03-01T09:19:52;24.77;;;17.40;;
45041;SDS011;30779;52.096;4.410;2023-03-01T09:22:53;27.15;;;18.38;;
45041;SDS011;30779;52.096;4.410;2023-03-01T09:25:54;23.80;;;17.15;;
45041;SDS011;30779;52.096;4.410;2023-03-01T09:28:56;23.85;;;17.52;;
45041;SDS011;30779;52.096;4.410;2023-03-01T09:31:57;22.98;;;15.85;;
45041;SDS011;30779;52.096;4.410;2023-03-01T09:34:58;23.30;;;15.38;;
45041;SDS011;30779;52.096;4.410;2023-03-01T09:38:05;20.65;;;15.75;;
45041;SDS011;30779;52.096;4.410;2023-03-01T09:41:49;22.67;;;16.08;;
45041;SDS011;30779;52.096;4.410;2023-03-01T09:47:32;24.60;;;16.88;;
45041;SDS011;30779;52.096;4.410;2023-03-01T09:50:35;23.25;;;16.27;;
45041;SDS011;30779;52.096;4.410;2023-03-01T09:53:39;21.17;;;14.70;;
45041;SDS011;30779;52.096;4.410;2023-03-01T09:56:41;22.02;;;15.23;;
45041;SDS011;30779;52.096;4.410;2023-03-01T09:59:48;21.10;;;15.82;;
45041;SDS011;30779;52.096;4.410;2023-03-01T10:03:00;15.15;;;11.63;;
45041;SDS011;30779;52.096;4.410;2023-03-01T10:06:19;17.33;;;13.55;;
45041;SDS011;30779;52.096;4.410;2023-03-01T10:09:21;16.90;;;13.60;;
45041;SDS011;30779;52.096;4.410;2023-03-01T10:12:24;18.13;;;13.50;;
45041;SDS011;30779;52.096;4.410;2023-03-01T10:15:31;19.63;;;13.10;;
45041;SDS011;30779;52.096;4.410;2023-03-01T10:18:33;17.02;;;12.15;;
45041;SDS011;30779;52.096;4.410;2023-03-01T10:21:37;17.02;;;11.50;;
45041;SDS011;30779;52.096;4.410;2023-03-01T10:24:41;13.52;;;10.68;;
45041;SDS011;30779;52.096;4.410;2023-03-01T10:27:49;13.02;;;8.95;;
45041;SDS011;30779;52.096;4.410;2023-03-01T10:30:51;12.00;;;8.60;;
45041;SDS011;30779;52.096;4.410;2023-03-01T10:33:53;12.98;;;9.38;;
45041;SDS011;30779;52.096;4.410;2023-03-01T10:36:57;11.93;;;8.97;;
45041;SDS011;30779;52.096;4.410;2023-03-01T10:43:03;14.77;;;8.35;;
45041;SDS011;30779;52.096;4.410;2023-03-01T10:46:09;10.00;;;7.68;;
45041;SDS011;30779;52.096;4.410;2023-03-01T10:49:22;13.68;;;9.10;;
45041;SDS011;30779;52.096;4.410;2023-03-01T10:52:27;13.38;;;8.88;;
45041;SDS011;30779;52.096;4.410;2023-03-01T10:55:38;15.05;;;9.80;;
45041;SDS011;30779;52.096;4.410;2023-03-01T10:58:41;14.77;;;9.55;;
45041;SDS011;30779;52.096;4.410;2023-03-01T11:01:42;13.30;;;8.77;;
45041;SDS011;30779;52.096;4.410;2023-03-01T11:08:30;14.60;;;10.70;;
45041;SDS011;30779;52.096;4.410;2023-03-01T11:11:33;15.18;;;10.43;;
45041;SDS011;30779;52.096;4.410;2023-03-01T11:14:37;12.80;;;9.65;;
45041;SDS011;30779;52.096;4.410;2023-03-01T11:17:40;14.13;;;9.07;;
45041;SDS011;30779;52.096;4.410;2023-03-01T11:23:45;10.63;;;8.25;;
45041;SDS011;30779;52.096;4.410;2023-03-01T11:26:47;13.45;;;8.60;;
45041;SDS011;30779;52.096;4.410;2023-03-01T11:39:27;12.52;;;9.68;;
45041;SDS011;30779;52.096;4.410;2023-03-01T11:45:35;14.23;;;8.25;;
45041;SDS011;30779;52.096;4.410;2023-03-01T11:58:07;14.40;;;9.00;;
45041;SDS011;30779;52.096;4.410;2023-03-01T12:20:20;14.63;;;10.68;;
45041;SDS011;30779;52.096;4.410;2023-03-01T12:26:40;11.48;;;8.52;;
45041;SDS011;30779;52.096;4.410;2023-03-01T12:29:52;14.10;;;8.35;;
45041;SDS011;30779;52.096;4.410;2023-03-01T12:33:06;8.63;;;6.88;;
45041;SDS011;30779;52.096;4.410;2023-03-01T12:39:35;13.10;;;7.82;;
45041;SDS011;30779;52.096;4.410;2023-03-01T12:42:54;13.45;;;9.40;;
45041;SDS011;30779;52.096;4.410;2023-03-01T12:52:09;14.63;;;10.52;;
45041;SDS011;30779;52.096;4.410;2023-03-01T12:55:44;14.60;;;10.00;;
45041;SDS011;30779;52.096;4.410;2023-03-01T13:11:36;15.70;;;10.73;;
45041;SDS011;30779;52.096;4.410;2023-03-01T13:14:41;14.70;;;9.85;;
45041;SDS011;30779;52.096;4.410;2023-03-01T13:17:45;16.55;;;9.55;;
45041;SDS011;30779;52.096;4.410;2023-03-01T13:20:47;17.35;;;10.52;;
45041;SDS011;30779;52.096;4.410;2023-03-01T13:23:48;17.52;;;9.95;;
45041;SDS011;30779;52.096;4.410;2023-03-01T13:39:38;20.03;;;9.87;;
45041;SDS011;30779;52.096;4.410;2023-03-01T13:42:41;13.48;;;9.30;;
45041;SDS011;30779;52.096;4.410;2023-03-01T13:45:43;13.55;;;8.32;;
45041;SDS011;30779;52.096;4.410;2023-03-01T13:48:45;11.90;;;8.07;;
45041;SDS011;30779;52.096;4.410;2023-03-01T13:51:46;15.95;;;9.35;;
45041;SDS011;30779;52.096;4.410;2023-03-01T13:54:48;10.95;;;7.28;;
45041;SDS011;30779;52.096;4.410;2023-03-01T13:57:50;13.68;;;8.55;;
45041;SDS011;30779;52.096;4.410;2023-03-01T14:01:01;11.43;;;7.75;;
45041;SDS011;30779;52.096;4.410;2023-03-01T14:04:03;10.52;;;7.18;;
45041;SDS011;30779;52.096;4.410;2023-03-01T14:07:19;11.32;;;8.00;;
45041;SDS011;30779;52.096;4.410;2023-03-01T14:10:21;13.55;;;8.70;;
45041;SDS011;30779;52.096;4.410;2023-03-01T14:19:43;10.95;;;7.57;;
45041;SDS011;30779;52.096;4.410;2023-03-01T14:22:46;14.52;;;7.75;;
45041;SDS011;30779;52.096;4.410;2023-03-01T14:25:52;12.90;;;8.40;;
45041;SDS011;30779;52.096;4.410;2023-03-01T14:28:54;13.68;;;7.75;;
45041;SDS011;30779;52.096;4.410;2023-03-01T14:32:01;14.32;;;7.60;;
45041;SDS011;30779;52.096;4.410;2023-03-01T14:35:22;13.13;;;7.65;;
45041;SDS011;30779;52.096;4.410;2023-03-01T14:38:28;12.45;;;8.15;;
45041;SDS011;30779;52.096;4.410;2023-03-01T14:41:29;13.52;;;7.75;;
45041;SDS011;30779;52.096;4.410;2023-03-01T14:44:30;12.27;;;7.88;;
45041;SDS011;30779;52.096;4.410;2023-03-01T14:47:34;12.18;;;7.88;;
45041;SDS011;30779;52.096;4.410;2023-03-01T14:50:40;10.85;;;7.60;;
45041;SDS011;30779;52.096;4.410;2023-03-01T14:53:41;10.93;;;7.57;;
45041;SDS011;30779;52.096;4.410;2023-03-01T14:56:43;10.95;;;7.30;;
45041;SDS011;30779;52.096;4.410;2023-03-01T14:59:44;10.27;;;7.15;;
45041;SDS011;30779;52.096;4.410;2023-03-01T15:02:48;9.97;;;7.37;;
45041;SDS011;30779;52.096;4.410;2023-03-01T15:05:49;11.80;;;8.43;;
45041;SDS011;30779;52.096;4.410;2023-03-01T15:08:52;11.90;;;8.00;;
45041;SDS011;30779;52.096;4.410;2023-03-01T15:11:54;11.83;;;8.13;;
45041;SDS011;30779;52.096;4.410;2023-03-01T15:14:55;10.13;;;7.30;;
45041;SDS011;30779;52.096;4.410;2023-03-01T15:17:58;12.65;;;7.38;;
45041;SDS011;30779;52.096;4.410;2023-03-01T15:21:13;7.37;;;5.47;;
45041;SDS011;30779;52.096;4.410;2023-03-01T15:24:17;8.00;;;5.78;;
45041;SDS011;30779;52.096;4.410;2023-03-01T15:27:21;14.85;;;8.55;;
45041;SDS011;30779;52.096;4.410;2023-03-01T15:33:36;13.38;;;6.47;;
45041;SDS011;30779;52.096;4.410;2023-03-01T15:39:40;11.10;;;6.38;;
45041;SDS011;30779;52.096;4.410;2023-03-01T15:42:43;10.65;;;6.55;;
45041;SDS011;30779;52.096;4.410;2023-03-01T15:45:44;11.30;;;7.68;;
45041;SDS011;30779;52.096;4.410;2023-03-01T15:48:57;9.98;;;6.55;;
45041;SDS011;30779;52.096;4.410;2023-03-01T15:51:58;8.40;;;5.68;;
45041;SDS011;30779;52.096;4.410;2023-03-01T15:55:00;8.10;;;5.82;;
45041;SDS011;30779;52.096;4.410;2023-03-01T16:01:02;7.28;;;5.68;;
45041;SDS011;30779;52.096;4.410;2023-03-01T16:04:04;11.25;;;7.20;;
45041;SDS011;30779;52.096;4.410;2023-03-01T16:07:04;11.32;;;6.60;;
45041;SDS011;30779;52.096;4.410;2023-03-01T16:10:05;8.55;;;5.93;;
45041;SDS011;30779;52.096;4.410;2023-03-01T16:13:07;8.23;;;5.47;;
45041;SDS011;30779;52.096;4.410;2023-03-01T16:16:10;7.60;;;5.85;;
45041;SDS011;30779;52.096;4.410;2023-03-01T16:19:12;9.20;;;5.72;;
45041;SDS011;30779;52.096;4.410;2023-03-01T16:22:14;7.57;;;5.88;;
45041;SDS011;30779;52.096;4.410;2023-03-01T16:25:16;10.00;;;6.05;;
45041;SDS011;30779;52.096;4.410;2023-03-01T16:28:17;9.57;;;5.82;;
45041;SDS011;30779;52.096;4.410;2023-03-01T16:31:19;9.07;;;6.95;;
45041;SDS011;30779;52.096;4.410;2023-03-01T16:34:20;7.47;;;6.03;;
45041;SDS011;30779;52.096;4.410;2023-03-01T16:37:21;9.10;;;5.78;;
45041;SDS011;30779;52.096;4.410;2023-03-01T16:40:27;9.85;;;5.60;;
45041;SDS011;30779;52.096;4.410;2023-03-01T16:43:29;9.45;;;5.55;;
45041;SDS011;30779;52.096;4.410;2023-03-01T16:46:30;7.50;;;5.15;;
45041;SDS011;30779;52.096;4.410;2023-03-01T16:49:31;10.45;;;6.95;;
45041;SDS011;30779;52.096;4.410;2023-03-01T16:52:33;7.72;;;5.63;;
45041;SDS011;30779;52.096;4.410;2023-03-01T16:55:34;9.88;;;6.07;;
45041;SDS011;30779;52.096;4.410;2023-03-01T16:58:35;8.52;;;5.47;;
45041;SDS011;30779;52.096;4.410;2023-03-01T17:01:36;7.43;;;5.35;;
45041;SDS011;30779;52.096;4.410;2023-03-01T17:04:39;12.55;;;6.35;;
45041;SDS011;30779;52.096;4.410;2023-03-01T17:07:40;16.05;;;8.60;;
45041;SDS011;30779;52.096;4.410;2023-03-01T17:10:42;7.47;;;5.28;;
45041;SDS011;30779;52.096;4.410;2023-03-01T17:13:43;9.00;;;5.90;;
45041;SDS011;30779;52.096;4.410;2023-03-01T17:16:44;8.88;;;6.05;;
45041;SDS011;30779;52.096;4.410;2023-03-01T17:19:45;9.10;;;5.57;;
45041;SDS011;30779;52.096;4.410;2023-03-01T17:22:46;10.38;;;7.07;;
45041;SDS011;30779;52.096;4.410;2023-03-01T17:25:47;11.25;;;6.20;;
45041;SDS011;30779;52.096;4.410;2023-03-01T17:28:48;8.45;;;5.78;;
45041;SDS011;30779;52.096;4.410;2023-03-01T17:31:51;10.65;;;6.57;;
45041;SDS011;30779;52.096;4.410;2023-03-01T17:34:54;7.30;;;5.43;;
45041;SDS011;30779;52.096;4.410;2023-03-01T17:37:55;7.75;;;5.80;;
45041;SDS011;30779;52.096;4.410;2023-03-01T17:40:59;15.27;;;6.25;;
45041;SDS011;30779;52.096;4.410;2023-03-01T17:44:00;8.35;;;5.85;;
45041;SDS011;30779;52.096;4.410;2023-03-01T17:47:02;8.45;;;5.32;;
45041;SDS011;30779;52.096;4.410;2023-03-01T17:50:04;8.68;;;6.18;;
45041;SDS011;30779;52.096;4.410;2023-03-01T17:53:07;7.88;;;6.05;;
45041;SDS011;30779;52.096;4.410;2023-03-01T17:56:09;7.40;;;5.80;;
45041;SDS011;30779;52.096;4.410;2023-03-01T17:59:10;7.68;;;5.57;;
45041;SDS011;30779;52.096;4.410;2023-03-01T18:02:11;8.43;;;5.28;;
45041;SDS011;30779;52.096;4.410;2023-03-01T18:05:12;9.23;;;6.82;;
45041;SDS011;30779;52.096;4.410;2023-03-01T18:08:13;9.40;;;6.45;;
45041;SDS011;30779;52.096;4.410;2023-03-01T18:11:15;8.68;;;6.07;;
45041;SDS011;30779;52.096;4.410;2023-03-01T18:14:16;11.48;;;6.38;;
45041;SDS011;30779;52.096;4.410;2023-03-01T18:17:17;6.78;;;5.03;;
45041;SDS011;30779;52.096;4.410;2023-03-01T18:20:18;9.88;;;5.75;;
45041;SDS011;30779;52.096;4.410;2023-03-01T18:23:19;7.88;;;5.82;;
45041;SDS011;30779;52.096;4.410;2023-03-01T18:26:21;8.27;;;5.63;;
45041;SDS011;30779;52.096;4.410;2023-03-01T18:29:23;9.57;;;6.50;;
45041;SDS011;30779;52.096;4.410;2023-03-01T18:32:25;9.75;;;5.40;;
45041;SDS011;30779;52.096;4.410;2023-03-01T18:35:28;9.38;;;6.45;;
45041;SDS011;30779;52.096;4.410;2023-03-01T18:38:30;11.65;;;6.28;;
45041;SDS011;30779;52.096;4.410;2023-03-01T18:41:31;9.75;;;6.35;;
45041;SDS011;30779;52.096;4.410;2023-03-01T18:44:33;12.82;;;7.35;;
45041;SDS011;30779;52.096;4.410;2023-03-01T18:47:34;8.93;;;6.90;;
45041;SDS011;30779;52.096;4.410;2023-03-01T18:50:35;10.25;;;6.68;;
45041;SDS011;30779;52.096;4.410;2023-03-01T18:53:36;8.23;;;5.93;;
45041;SDS011;30779;52.096;4.410;2023-03-01T18:56:37;10.10;;;6.30;;
45041;SDS011;30779;52.096;4.410;2023-03-01T18:59:38;11.23;;;6.80;;
45041;SDS011;30779;52.096;4.410;2023-03-01T19:02:39;10.60;;;5.90;;
45041;SDS011;30779;52.096;4.410;2023-03-01T19:05:40;7.82;;;5.43;;
45041;SDS011;30779;52.096;4.410;2023-03-01T19:08:41;8.93;;;5.97;;
45041;SDS011;30779;52.096;4.410;2023-03-01T19:11:43;8.55;;;6.05;;
45041;SDS011;30779;52.096;4.410;2023-03-01T19:14:44;10.00;;;6.68;;
45041;SDS011;30779;52.096;4.410;2023-03-01T19:17:45;10.60;;;6.72;;
45041;SDS011;30779;52.096;4.410;2023-03-01T19:20:46;10.52;;;6.75;;
45041;SDS011;30779;52.096;4.410;2023-03-01T19:23:47;9.40;;;7.00;;
45041;SDS011;30779;52.096;4.410;2023-03-01T19:26:48;9.02;;;6.53;;
45041;SDS011;30779;52.096;4.410;2023-03-01T19:29:49;12.98;;;7.80;;
45041;SDS011;30779;52.096;4.410;2023-03-01T19:32:50;8.68;;;6.00;;
45041;SDS011;30779;52.096;4.410;2023-03-01T19:35:51;11.57;;;6.90;;
45041;SDS011;30779;52.096;4.410;2023-03-01T19:38:52;15.05;;;8.23;;
45041;SDS011;30779;52.096;4.410;2023-03-01T19:41:54;10.77;;;7.38;;
45041;SDS011;30779;52.096;4.410;2023-03-01T19:44:55;12.77;;;6.82;;
45041;SDS011;30779;52.096;4.410;2023-03-01T19:47:56;13.82;;;7.18;;
45041;SDS011;30779;52.096;4.410;2023-03-01T19:50:59;16.15;;;8.43;;
45041;SDS011;30779;52.096;4.410;2023-03-01T19:54:00;9.93;;;7.13;;
45041;SDS011;30779;52.096;4.410;2023-03-01T19:57:01;11.65;;;7.20;;
45041;SDS011;30779;52.096;4.410;2023-03-01T20:00:02;11.75;;;7.18;;